Southold, NY (11971)

2:34 AM EST on February 10, 2016 (GMT -0500)
residential neghiborhood - Southold, NY | | Change Station
CLOSE
Current Station
Personal Weather Station
Location: Southold, NY
Elevation: 7 ft
Nearby Weather Stations

Elev 7 ft 41.06 °N, 72.43 °W | Updated 8 minutes ago

Mostly Cloudy
Mostly Cloudy
24.4 °F
Feels Like 24 °F
N
0.0
Wind Variable Wind from West

Today
High -- | Low -- °F
--% Chance of Precip.
Yesterday
High -- | Low -- °F
Precip. -- in
Pressure 29.60 in
Visibility 10.0 miles
Clouds Scattered Clouds 4700 ft
Mostly Cloudy 6000 ft
Overcast 7500 ft
Windchill 24 °F
Dew Point 24 °F
Humidity 99%
Rainfall 0.00 in
Snow Depth Not available.
6:51 AM 5:17 PM
Waxing Crescent, 4% visible
METAR KHTO 100715Z AUTO 00000KT 10SM SCT047 BKN060 OVC075 M04/M05 A2960 RMK AO2 T10421049
Pressure 29.60 in
Visibility 10.0 miles
Clouds Scattered Clouds 4700 ft
Mostly Cloudy 6000 ft
Overcast 7500 ft
Windchill 24 °F
Dew Point 24 °F
Humidity 99%
Rainfall 0.00 in
Snow Depth Not available.
6:51 AM 5:17 PM
Waxing Crescent, 4% visible
METAR KHTO 100715Z AUTO 00000KT 10SM SCT047 BKN060 OVC075 M04/M05 A2960 RMK AO2 T10421049

10-Day Weather Forecast

Almanac

Astronomy

Feb. 10, 2016 Rise Set
Actual Time
Civil Twilight
Nautical Twilight
Astronomical Twilight
Moon
Length of Visible Light
Length of Day
Tomorrow will be .
, % of the Moon is Illuminated

Today's Extremes

State Highs State Lows

Community

WunderPhotos

Upload Photos

1,891,826 photos uploaded!

WunderBlog® & News

Nearby

Air Quality

  Air Quality AQ Index Pollutant
Not available.

Snow Depth

Station Depth Elevation

Earthquake Activity

City Distance Mag. Time & Date
Minimum magnitude displayed is 2.5.

Coastal Water Temperatures

Place Temperature

Stations

Nearby Weather Stations

Station Location Temp. Windchill Dew Point Humidity Wind Precip. Elev Updated Type
                   

Watches & Warnings

There are currently no watches in effect.